createdAt,value
2023-02-12T00:02:19.157Z,16.60
2023-02-12T00:04:48.012Z,16.45
2023-02-12T00:07:15.191Z,18.20
2023-02-12T00:09:42.635Z,19.05
2023-02-12T00:12:09.957Z,20.30
2023-02-12T00:14:38.363Z,17.33
2023-02-12T00:17:05.455Z,18.33
2023-02-12T00:19:32.692Z,19.77
2023-02-12T00:21:59.959Z,17.88
2023-02-12T00:24:28.009Z,19.33
2023-02-12T00:26:55.210Z,19.40
2023-02-12T00:29:22.479Z,19.52
2023-02-12T00:31:49.651Z,19.83
2023-02-12T00:34:16.991Z,20.00
2023-02-12T00:36:44.346Z,18.00
2023-02-12T00:39:14.270Z,15.90
2023-02-12T00:41:42.176Z,18.88
2023-02-12T00:44:09.576Z,19.48
2023-02-12T00:46:36.676Z,20.42
2023-02-12T00:49:04.162Z,17.15
2023-02-12T00:51:31.289Z,19.48
2023-02-12T00:53:58.842Z,18.00
2023-02-12T00:56:26.147Z,19.58
2023-02-12T00:58:53.443Z,17.33
2023-02-12T01:01:21.045Z,16.50
2023-02-12T01:03:48.275Z,17.50
2023-02-12T01:06:15.525Z,17.27
2023-02-12T01:08:42.548Z,14.35
2023-02-12T01:11:12.885Z,16.75
2023-02-12T01:13:40.023Z,18.30
2023-02-12T01:16:15.409Z,18.08
2023-02-12T01:18:42.826Z,15.88
2023-02-12T01:21:14.453Z,16.65
2023-02-12T01:23:44.875Z,15.82
2023-02-12T01:26:13.451Z,16.40
2023-02-12T01:28:41.278Z,17.38
2023-02-12T01:31:17.229Z,16.23
2023-02-12T01:33:44.465Z,15.85
2023-02-12T01:36:14.270Z,14.90
2023-02-12T01:38:42.404Z,16.85
2023-02-12T01:41:13.902Z,14.75
2023-02-12T01:43:41.839Z,17.67
2023-02-12T01:46:12.365Z,19.60
2023-02-12T01:48:40.943Z,17.52
2023-02-12T01:51:08.934Z,17.63
2023-02-12T01:53:38.525Z,14.60
2023-02-12T01:56:05.972Z,16.42
2023-02-12T01:58:36.401Z,19.90
2023-02-12T02:01:04.914Z,16.08
2023-02-12T02:03:32.245Z,18.10
2023-02-12T02:06:05.578Z,19.73
2023-02-12T02:08:33.857Z,19.35
2023-02-12T02:11:22.189Z,14.57
2023-02-12T02:14:08.261Z,15.90
2023-02-12T02:16:35.654Z,10.70
2023-02-12T02:19:07.549Z,11.05
2023-02-12T02:21:43.622Z,9.75
2023-02-12T02:24:21.986Z,12.38
2023-02-12T02:27:00.104Z,10.35
2023-02-12T02:29:49.455Z,11.60
2023-02-12T02:32:32.698Z,12.75
2023-02-12T02:35:05.366Z,15.05
2023-02-12T02:37:33.482Z,13.82
2023-02-12T02:40:30.186Z,12.68
2023-02-12T02:43:12.140Z,14.80
2023-02-12T02:45:55.522Z,13.23
2023-02-12T02:48:26.680Z,12.68
2023-02-12T02:50:57.234Z,14.77
2023-02-12T02:53:31.750Z,14.10
2023-02-12T02:55:59.955Z,13.55
2023-02-12T02:58:45.751Z,14.30
2023-02-12T03:01:22.458Z,11.88
2023-02-12T03:03:55.212Z,14.52
2023-02-12T03:06:25.081Z,14.70
2023-02-12T03:08:58.586Z,14.02
2023-02-12T03:11:30.574Z,14.05
2023-02-12T03:14:22.886Z,15.02
2023-02-12T03:17:15.109Z,14.05
2023-02-12T03:20:09.858Z,17.23
2023-02-12T03:22:39.167Z,14.70
2023-02-12T03:25:15.087Z,14.20
2023-02-12T03:28:05.239Z,16.67
2023-02-12T03:30:44.375Z,16.55
2023-02-12T03:33:20.944Z,14.85
2023-02-12T03:35:56.954Z,12.82
2023-02-12T03:38:31.603Z,16.25
2023-02-12T03:41:04.881Z,15.68
2023-02-12T03:43:50.401Z,13.80
2023-02-12T03:46:20.650Z,16.05
2023-02-12T03:48:53.027Z,14.02
2023-02-12T03:51:29.489Z,16.98
2023-02-12T03:53:56.891Z,14.68
2023-02-12T03:56:48.730Z,14.07
2023-02-12T03:59:15.971Z,14.75
2023-02-12T04:01:43.116Z,14.63
2023-02-12T04:04:11.746Z,16.15
2023-02-12T04:06:39.113Z,16.35
2023-02-12T04:09:12.242Z,13.52
2023-02-12T04:12:10.813Z,17.00
2023-02-12T04:14:44.893Z,15.15
2023-02-12T04:17:49.839Z,13.60
2023-02-12T04:20:38.437Z,14.00
2023-02-12T04:23:08.450Z,15.63
2023-02-12T04:26:06.324Z,17.40
2023-02-12T04:28:45.586Z,16.50
2023-02-12T04:31:33.758Z,16.17
2023-02-12T04:34:10.881Z,13.88
2023-02-12T04:36:42.522Z,18.63
2023-02-12T04:39:11.934Z,14.82
2023-02-12T04:41:39.788Z,15.43
2023-02-12T04:44:22.913Z,14.85
2023-02-12T04:46:50.483Z,14.10
2023-02-12T04:49:18.910Z,13.20
2023-02-12T04:51:46.695Z,13.02
2023-02-12T04:54:14.783Z,18.45
2023-02-12T04:56:42.414Z,15.50
2023-02-12T04:59:09.825Z,13.02
2023-02-12T05:01:37.853Z,15.32
2023-02-12T05:04:05.346Z,13.85
2023-02-12T05:06:34.904Z,15.55
2023-02-12T05:09:02.164Z,14.55
2023-02-12T05:11:29.305Z,12.88
2023-02-12T05:13:56.543Z,16.77
2023-02-12T05:16:23.797Z,14.68
2023-02-12T05:18:51.071Z,13.07
2023-02-12T05:21:18.316Z,12.23
2023-02-12T05:23:45.426Z,13.75
2023-02-12T05:26:20.197Z,13.32
2023-02-12T05:28:47.626Z,13.45
2023-02-12T05:31:18.833Z,12.13
2023-02-12T05:33:50.779Z,14.90
2023-02-12T05:36:20.153Z,14.82
2023-02-12T05:38:47.217Z,14.93
2023-02-12T05:41:16.512Z,13.23
2023-02-12T05:43:44.076Z,12.23
2023-02-12T05:46:11.874Z,12.48
2023-02-12T05:48:39.138Z,12.65
2023-02-12T05:51:08.653Z,15.57
2023-02-12T05:53:35.951Z,13.98
2023-02-12T05:56:16.523Z,13.70
2023-02-12T06:01:32.658Z,13.88
2023-02-12T06:04:00.834Z,13.25
2023-02-12T06:06:31.155Z,13.38
2023-02-12T06:08:58.703Z,11.93
2023-02-12T06:11:25.930Z,11.35
2023-02-12T06:13:53.101Z,13.68
2023-02-12T06:16:24.294Z,13.25
2023-02-12T06:18:51.795Z,10.90
2023-02-12T06:21:20.209Z,12.25
2023-02-12T06:23:47.902Z,13.15
2023-02-12T06:26:15.202Z,14.13
2023-02-12T06:28:42.450Z,10.25
2023-02-12T06:31:30.397Z,13.18
2023-02-12T06:33:59.641Z,16.02
2023-02-12T06:36:26.769Z,15.45
2023-02-12T06:38:54.042Z,11.77
2023-02-12T06:41:21.655Z,13.30
2023-02-12T06:43:48.868Z,15.57
2023-02-12T06:46:16.396Z,12.93
2023-02-12T06:48:43.549Z,13.63
2023-02-12T06:51:18.691Z,13.30
2023-02-12T06:53:45.770Z,11.35
2023-02-12T06:56:13.433Z,12.57
2023-02-12T06:58:43.806Z,13.90
2023-02-12T07:01:21.686Z,11.80
2023-02-12T07:03:50.827Z,14.38
2023-02-12T07:06:17.952Z,12.88
2023-02-12T07:08:45.098Z,12.52
2023-02-12T07:11:12.533Z,13.57
2023-02-12T07:13:41.847Z,12.15
2023-02-12T07:16:11.056Z,9.50
2023-02-12T07:18:38.470Z,9.40
2023-02-12T07:21:06.527Z,12.23
2023-02-12T07:23:34.025Z,8.95
2023-02-12T07:26:14.073Z,9.57
2023-02-12T07:28:41.996Z,10.30
2023-02-12T07:31:19.498Z,9.73
2023-02-12T07:33:46.995Z,12.30
2023-02-12T07:36:16.863Z,10.77
2023-02-12T07:38:44.842Z,9.05
2023-02-12T07:41:16.966Z,8.82
2023-02-12T07:43:44.819Z,8.02
2023-02-12T07:46:22.739Z,7.45
2023-02-12T07:48:51.868Z,6.80
2023-02-12T07:51:19.438Z,6.63
2023-02-12T07:53:46.776Z,8.10
2023-02-12T07:56:21.603Z,8.00
2023-02-12T07:58:49.835Z,7.72
2023-02-12T08:01:20.916Z,7.10
2023-02-12T08:03:48.337Z,9.80
2023-02-12T08:06:23.418Z,9.43
2023-02-12T08:08:56.200Z,8.73
2023-02-12T08:11:23.594Z,10.73
2023-02-12T08:13:51.451Z,10.07
2023-02-12T08:16:20.154Z,10.80
2023-02-12T08:18:48.230Z,10.40
2023-02-12T08:21:23.110Z,8.95
2023-02-12T08:23:50.918Z,8.57
2023-02-12T08:26:26.579Z,10.52
2023-02-12T08:28:55.733Z,7.88
2023-02-12T08:31:25.100Z,8.18
2023-02-12T08:33:53.305Z,9.00
2023-02-12T08:36:22.237Z,8.43
2023-02-12T08:38:49.497Z,8.95
2023-02-12T08:41:20.584Z,6.78
2023-02-12T08:43:49.514Z,6.65
2023-02-12T08:46:21.461Z,7.72
2023-02-12T08:48:48.835Z,7.35
2023-02-12T08:51:19.921Z,4.82
2023-02-12T08:53:48.555Z,6.07
2023-02-12T08:56:16.855Z,6.88
2023-02-12T08:58:45.332Z,7.07
2023-02-12T09:01:16.356Z,6.43
2023-02-12T09:03:44.078Z,7.72
2023-02-12T09:06:14.248Z,9.13
2023-02-12T09:08:44.056Z,7.03
2023-02-12T09:11:13.319Z,8.00
2023-02-12T09:13:41.083Z,9.00
2023-02-12T09:16:08.429Z,7.30
2023-02-12T09:18:35.668Z,8.18
2023-02-12T09:21:07.341Z,8.98
2023-02-12T09:23:34.569Z,7.25
2023-02-12T09:26:07.457Z,8.40
2023-02-12T09:28:35.071Z,6.50
2023-02-12T09:31:07.333Z,7.30
2023-02-12T09:33:34.815Z,7.40
2023-02-12T09:36:06.374Z,7.78
2023-02-12T09:38:33.717Z,8.20
2023-02-12T09:41:27.405Z,6.03
2023-02-12T09:44:36.584Z,8.20
2023-02-12T09:47:14.407Z,6.88
2023-02-12T09:49:57.969Z,7.72
2023-02-12T09:52:27.005Z,6.20
2023-02-12T09:54:54.282Z,6.50
2023-02-12T09:57:37.827Z,8.55
2023-02-12T10:00:31.299Z,6.38
2023-02-12T10:03:05.148Z,5.90
2023-02-12T10:05:38.244Z,6.28
2023-02-12T10:08:28.394Z,5.60
2023-02-12T10:11:20.476Z,7.30
2023-02-12T10:13:52.136Z,3.85
2023-02-12T10:16:30.903Z,3.75
2023-02-12T10:19:25.588Z,3.97
2023-02-12T10:22:01.745Z,3.53
2023-02-12T10:24:36.076Z,4.20
2023-02-12T10:27:15.055Z,3.13
2023-02-12T10:29:44.915Z,3.92
2023-02-12T10:32:31.309Z,3.30
2023-02-12T10:35:00.934Z,3.22
2023-02-12T10:37:37.367Z,4.00
2023-02-12T10:40:40.364Z,4.35
2023-02-12T10:43:12.851Z,3.22
2023-02-12T10:45:41.110Z,6.47
2023-02-12T10:48:35.372Z,3.17
2023-02-12T10:51:08.703Z,5.15
2023-02-12T10:53:45.763Z,3.58
2023-02-12T10:56:17.611Z,4.05
2023-02-12T10:58:53.246Z,2.65
2023-02-12T11:01:31.793Z,3.20
2023-02-12T11:03:59.946Z,4.00
2023-02-12T11:06:31.647Z,3.33
2023-02-12T11:08:59.290Z,3.80
2023-02-12T11:11:33.606Z,2.92
2023-02-12T11:14:12.911Z,3.58
2023-02-12T11:17:03.810Z,3.13
2023-02-12T11:19:31.825Z,2.70
2023-02-12T11:22:18.967Z,2.72
2023-02-12T11:24:47.239Z,4.43
2023-02-12T11:27:25.711Z,4.20
2023-02-12T11:30:23.888Z,3.00
2023-02-12T11:33:03.109Z,5.07
2023-02-12T11:35:35.420Z,3.72
2023-02-12T11:38:02.717Z,3.88
2023-02-12T11:40:37.202Z,3.15
2023-02-12T11:43:06.302Z,5.72
2023-02-12T11:45:44.744Z,3.30
2023-02-12T11:48:32.287Z,2.58
2023-02-12T11:51:01.587Z,2.50
2023-02-12T11:53:34.177Z,3.78
2023-02-12T11:56:03.748Z,4.68
2023-02-12T11:58:31.338Z,3.60
2023-02-12T12:01:04.875Z,2.92
2023-02-12T12:03:37.037Z,4.55
2023-02-12T12:06:12.631Z,3.08
2023-02-12T12:08:48.457Z,3.95
2023-02-12T12:11:21.225Z,3.80
2023-02-12T12:14:00.237Z,3.15
2023-02-12T12:17:15.012Z,3.05
2023-02-12T12:20:14.702Z,3.88
2023-02-12T12:22:52.081Z,5.03
2023-02-12T12:28:31.678Z,3.45
2023-02-12T12:31:15.256Z,3.55
2023-02-12T12:33:45.008Z,3.25
2023-02-12T12:36:33.346Z,3.40
2023-02-12T12:39:21.535Z,2.75
2023-02-12T12:41:52.756Z,4.03
2023-02-12T12:44:32.365Z,3.90
2023-02-12T12:47:27.250Z,3.13
2023-02-12T12:49:57.420Z,4.32
2023-02-12T12:52:56.947Z,4.30
2023-02-12T12:55:43.254Z,5.15
2023-02-12T12:58:16.128Z,3.97
2023-02-12T13:01:21.377Z,4.53
2023-02-12T13:04:14.708Z,4.72
2023-02-12T13:06:54.354Z,3.20
2023-02-12T13:09:43.874Z,2.75
2023-02-12T13:12:30.698Z,3.38
2023-02-12T13:15:06.712Z,3.10
2023-02-12T13:17:48.284Z,3.22
2023-02-12T13:20:29.829Z,3.58
2023-02-12T13:23:00.884Z,3.95
2023-02-12T13:25:55.493Z,4.25
2023-02-12T13:28:32.375Z,3.33
2023-02-12T13:30:59.572Z,5.55
2023-02-12T13:33:29.402Z,4.18
2023-02-12T13:35:59.521Z,3.00
2023-02-12T13:38:42.421Z,4.15
2023-02-12T13:41:10.895Z,4.55
2023-02-12T13:43:46.837Z,5.35
2023-02-12T13:46:39.899Z,3.60
2023-02-12T13:49:24.404Z,3.47
2023-02-12T13:51:57.476Z,3.20
2023-02-12T13:54:42.368Z,3.97
2023-02-12T13:57:21.756Z,4.65
2023-02-12T13:59:50.921Z,4.50
2023-02-12T14:02:33.124Z,4.20
2023-02-12T14:05:19.582Z,3.70
2023-02-12T14:07:58.045Z,4.55
2023-02-12T14:10:39.795Z,3.95
2023-02-12T14:13:12.831Z,3.53
2023-02-12T14:15:44.614Z,3.85
2023-02-12T14:18:26.944Z,4.05
2023-02-12T14:21:12.658Z,6.72
2023-02-12T14:23:44.070Z,5.07
2023-02-12T14:26:21.975Z,4.45
2023-02-12T14:28:55.270Z,4.68
2023-02-12T14:31:23.291Z,5.97
2023-02-12T14:34:16.853Z,5.35
2023-02-12T14:36:49.266Z,5.35
2023-02-12T14:39:19.421Z,5.75
2023-02-12T14:41:51.990Z,5.72
2023-02-12T14:44:23.398Z,6.18
2023-02-12T14:46:54.126Z,5.38
2023-02-12T14:49:27.105Z,4.57
2023-02-12T14:51:56.545Z,5.00
2023-02-12T14:54:46.079Z,6.00
2023-02-12T14:57:23.929Z,3.90
2023-02-12T14:59:51.457Z,5.45
2023-02-12T15:02:26.932Z,3.67
2023-02-12T15:04:56.840Z,3.90
2023-02-12T15:07:29.688Z,5.28
2023-02-12T15:10:10.771Z,5.88
2023-02-12T15:12:46.867Z,5.25
2023-02-12T15:15:35.415Z,4.70
2023-02-12T15:18:15.262Z,5.38
2023-02-12T15:20:48.800Z,5.88
2023-02-12T15:23:36.332Z,7.40
2023-02-12T15:26:04.507Z,6.65
2023-02-12T15:28:33.877Z,6.70
2023-02-12T15:31:04.763Z,6.67
2023-02-12T15:33:33.636Z,5.90
2023-02-12T15:36:01.561Z,7.65
2023-02-12T15:38:38.092Z,7.93
2023-02-12T15:41:05.730Z,8.38
2023-02-12T15:43:37.851Z,6.25
2023-02-12T15:46:07.931Z,4.35
2023-02-12T15:48:36.074Z,5.93
2023-02-12T15:51:29.281Z,5.85
2023-02-12T15:53:56.923Z,4.80
2023-02-12T15:56:24.475Z,5.95
2023-02-12T15:58:53.475Z,4.75
2023-02-12T16:01:31.202Z,4.22
2023-02-12T16:04:06.405Z,5.32
2023-02-12T16:06:34.831Z,5.25
2023-02-12T16:09:06.825Z,10.27
2023-02-12T16:11:34.149Z,7.03
2023-02-12T16:14:06.010Z,5.43
2023-02-12T16:16:50.261Z,4.22
2023-02-12T16:19:33.066Z,6.07
2023-02-12T16:22:07.907Z,5.68
2023-02-12T16:24:54.065Z,9.70
2023-02-12T16:27:23.276Z,4.22
2023-02-12T16:29:52.348Z,5.05
2023-02-12T16:32:46.029Z,5.07
2023-02-12T16:35:16.386Z,6.28
2023-02-12T16:37:51.090Z,3.80
2023-02-12T16:40:21.976Z,5.90
2023-02-12T16:42:49.157Z,5.13
2023-02-12T16:45:28.603Z,5.15
2023-02-12T16:48:14.059Z,7.15
2023-02-12T16:50:49.995Z,5.05
2023-02-12T16:53:26.203Z,6.93
2023-02-12T16:55:53.459Z,6.25
2023-02-12T16:58:20.477Z,5.40
2023-02-12T17:00:48.321Z,6.80
2023-02-12T17:03:16.416Z,9.25
2023-02-12T17:05:45.269Z,7.85
2023-02-12T17:08:17.059Z,5.00
2023-02-12T17:10:48.479Z,5.72
2023-02-12T17:13:15.937Z,9.68
2023-02-12T17:15:44.967Z,12.35
2023-02-12T17:18:12.973Z,11.13
2023-02-12T17:20:42.123Z,11.60
2023-02-12T17:23:12.539Z,7.22
2023-02-12T17:25:39.719Z,6.15
2023-02-12T17:28:15.106Z,6.72
2023-02-12T17:30:45.578Z,18.42
2023-02-12T17:33:13.012Z,7.43
2023-02-12T17:35:40.812Z,12.80
2023-02-12T17:38:08.076Z,7.68
2023-02-12T17:40:36.634Z,7.70
2023-02-12T17:43:06.968Z,8.45
2023-02-12T17:45:34.195Z,6.10
2023-02-12T17:48:01.438Z,5.68
2023-02-12T17:50:28.829Z,7.57
2023-02-12T17:52:56.195Z,8.70
2023-02-12T17:55:23.504Z,7.00
2023-02-12T17:57:54.674Z,7.97
2023-02-12T18:00:22.317Z,7.05
2023-02-12T18:02:49.538Z,7.22
2023-02-12T18:05:17.150Z,7.40
2023-02-12T18:07:44.522Z,8.30
2023-02-12T18:10:12.376Z,7.72
2023-02-12T18:12:39.573Z,10.02
2023-02-12T18:15:10.762Z,6.50
2023-02-12T18:17:38.052Z,7.13
2023-02-12T18:20:05.779Z,7.65
2023-02-12T18:22:34.568Z,5.32
2023-02-12T18:25:01.628Z,6.78
2023-02-12T18:27:28.690Z,6.70
2023-02-12T18:29:57.285Z,6.65
2023-02-12T18:32:24.657Z,5.95
2023-02-12T18:34:51.926Z,6.00
2023-02-12T18:37:19.255Z,6.97
2023-02-12T18:39:46.328Z,6.40
2023-02-12T18:42:13.431Z,6.60
2023-02-12T18:44:42.983Z,7.03
2023-02-12T18:47:10.108Z,6.07
2023-02-12T18:49:37.939Z,8.23
2023-02-12T18:52:05.548Z,6.53
2023-02-12T18:54:32.865Z,7.43
2023-02-12T18:56:59.970Z,7.28
2023-02-12T18:59:27.515Z,8.35
2023-02-12T19:01:54.874Z,7.75
2023-02-12T19:04:23.319Z,7.97
2023-02-12T19:06:52.599Z,8.70
2023-02-12T19:09:21.603Z,9.02
2023-02-12T19:11:49.814Z,8.85
2023-02-12T19:14:21.942Z,8.95
2023-02-12T19:16:49.302Z,8.75
2023-02-12T19:19:16.820Z,6.80
2023-02-12T19:21:44.320Z,7.80
2023-02-12T19:24:13.756Z,8.30
2023-02-12T19:26:41.763Z,7.68
2023-02-12T19:29:09.176Z,9.57
2023-02-12T19:31:38.398Z,7.80
2023-02-12T19:34:14.849Z,9.20
2023-02-12T19:36:47.739Z,9.15
2023-02-12T19:39:17.228Z,10.48
2023-02-12T19:41:44.468Z,10.77
2023-02-12T19:44:13.628Z,10.07
2023-02-12T19:46:41.029Z,9.60
2023-02-12T19:49:08.736Z,10.55
2023-02-12T19:51:38.146Z,10.82
2023-02-12T19:54:07.015Z,12.00
2023-02-12T19:56:35.439Z,11.13
2023-02-12T19:59:02.965Z,13.60
2023-02-12T20:01:30.290Z,11.52
2023-02-12T20:03:57.710Z,8.98
2023-02-12T20:06:36.005Z,11.40
2023-02-12T20:09:03.799Z,12.10
2023-02-12T20:11:32.181Z,12.73
2023-02-12T20:13:59.605Z,13.60
2023-02-12T20:16:31.396Z,12.85
2023-02-12T20:19:00.842Z,12.30
2023-02-12T20:21:31.282Z,14.27
2023-02-12T20:23:58.649Z,15.40
2023-02-12T20:26:25.997Z,13.57
2023-02-12T20:28:53.237Z,12.48
2023-02-12T20:31:22.554Z,11.43
2023-02-12T20:33:54.723Z,12.93
2023-02-12T20:36:21.858Z,12.65
2023-02-12T20:38:51.996Z,15.00
2023-02-12T20:41:19.129Z,14.05
2023-02-12T20:43:46.252Z,11.95
2023-02-12T20:46:15.086Z,14.38
2023-02-12T20:48:42.768Z,13.05
2023-02-12T20:51:15.977Z,14.82
2023-02-12T20:53:43.802Z,13.50
2023-02-12T20:56:15.779Z,14.13
2023-02-12T20:58:45.105Z,13.57
2023-02-12T21:01:21.678Z,10.95
2023-02-12T21:03:49.635Z,13.68
2023-02-12T21:06:16.948Z,12.52
2023-02-12T21:08:44.079Z,13.43
2023-02-12T21:11:17.083Z,14.15
2023-02-12T21:13:58.439Z,13.55
2023-02-12T21:16:37.013Z,13.27
2023-02-12T21:19:04.352Z,15.77
2023-02-12T21:21:33.640Z,14.60
2023-02-12T21:24:01.863Z,16.27
2023-02-12T21:26:30.437Z,16.27
2023-02-12T21:28:58.194Z,12.75
2023-02-12T21:31:26.526Z,14.70
2023-02-12T21:33:54.350Z,14.98
2023-02-12T21:36:23.451Z,15.98
2023-02-12T21:38:51.035Z,15.13
2023-02-12T21:41:23.275Z,13.48
2023-02-12T21:43:52.205Z,15.73
2023-02-12T21:46:21.749Z,15.48
2023-02-12T21:48:49.085Z,16.55
2023-02-12T21:51:17.322Z,15.95
2023-02-12T21:53:44.442Z,14.57
2023-02-12T21:56:14.451Z,14.68
2023-02-12T21:58:44.876Z,15.90
2023-02-12T22:03:40.652Z,14.45
2023-02-12T22:06:08.492Z,16.85
2023-02-12T22:08:35.853Z,15.00
2023-02-12T22:11:04.385Z,18.38
2023-02-12T22:13:31.632Z,18.85
2023-02-12T22:16:07.458Z,19.25
2023-02-12T22:18:34.822Z,19.63
2023-02-12T22:21:05.759Z,19.27
2023-02-12T22:23:33.161Z,19.02
2023-02-12T22:26:17.221Z,19.38
2023-02-12T22:28:48.957Z,21.70
2023-02-12T22:31:19.777Z,25.85
2023-02-12T22:33:47.858Z,25.80
2023-02-12T22:36:14.968Z,28.67
2023-02-12T22:38:45.592Z,27.50
2023-02-12T22:41:12.650Z,29.35
2023-02-12T22:43:40.439Z,27.38
2023-02-12T22:46:09.141Z,29.60
2023-02-12T22:48:36.300Z,31.25
2023-02-12T22:51:10.909Z,33.10
2023-02-12T22:53:38.102Z,29.55
2023-02-12T22:56:06.217Z,26.88
2023-02-12T22:58:34.282Z,29.33
2023-02-12T23:01:18.499Z,29.03
2023-02-12T23:03:46.131Z,28.27
2023-02-12T23:06:21.538Z,36.08
2023-02-12T23:08:53.351Z,25.90
2023-02-12T23:11:20.619Z,30.52
2023-02-12T23:13:47.887Z,29.95
2023-02-12T23:16:15.433Z,29.07
2023-02-12T23:18:42.845Z,31.10
2023-02-12T23:21:09.961Z,33.20
2023-02-12T23:23:37.788Z,34.30
2023-02-12T23:26:04.970Z,30.52
2023-02-12T23:28:32.198Z,32.20
2023-02-12T23:31:00.013Z,29.00
2023-02-12T23:33:27.439Z,34.63
2023-02-12T23:35:54.507Z,37.17
2023-02-12T23:38:21.856Z,29.70
2023-02-12T23:40:48.919Z,33.28
2023-02-12T23:43:16.061Z,30.67
2023-02-12T23:45:44.931Z,30.88
2023-02-12T23:48:15.285Z,32.30
2023-02-12T23:50:42.536Z,30.55
2023-02-12T23:53:11.790Z,28.97
2023-02-12T23:55:39.292Z,30.53
2023-02-12T23:58:06.629Z,31.77
